sensor_id;sensor_type;location;lat;lon;timestamp;temperature;humidity
23087;DHT22;11712;51.134;4.156;2022-09-28T00:01:21;10.20;99.90
23087;DHT22;11712;51.134;4.156;2022-09-28T00:03:48;10.50;99.90
23087;DHT22;11712;51.134;4.156;2022-09-28T00:06:17;10.50;99.90
23087;DHT22;11712;51.134;4.156;2022-09-28T00:08:43;10.50;99.90
23087;DHT22;11712;51.134;4.156;2022-09-28T00:11:11;10.40;99.90
23087;DHT22;11712;51.134;4.156;2022-09-28T00:13:38;10.60;99.90
23087;DHT22;11712;51.134;4.156;2022-09-28T00:16:05;10.80;99.90
23087;DHT22;11712;51.134;4.156;2022-09-28T00:18:32;10.90;99.90
23087;DHT22;11712;51.134;4.156;2022-09-28T00:21:03;10.90;99.90
23087;DHT22;11712;51.134;4.156;2022-09-28T00:23:30;10.90;99.90
23087;DHT22;11712;51.134;4.156;2022-09-28T00:26:01;10.40;99.90
23087;DHT22;11712;51.134;4.156;2022-09-28T00:28:27;10.50;99.90
23087;DHT22;11712;51.134;4.156;2022-09-28T00:30:56;10.50;99.90
23087;DHT22;11712;51.134;4.156;2022-09-28T00:33:22;10.40;99.90
23087;DHT22;11712;51.134;4.156;2022-09-28T00:35:57;10.40;99.90
23087;DHT22;11712;51.134;4.156;2022-09-28T00:38:28;10.50;99.90
23087;DHT22;11712;51.134;4.156;2022-09-28T00:40:54;10.50;99.90
23087;DHT22;11712;51.134;4.156;2022-09-28T00:43:22;10.50;99.90
23087;DHT22;11712;51.134;4.156;2022-09-28T00:46:18;10.40;99.90
23087;DHT22;11712;51.134;4.156;2022-09-28T00:48:54;10.30;99.90
23087;DHT22;11712;51.134;4.156;2022-09-28T00:51:22;10.20;99.90
23087;DHT22;11712;51.134;4.156;2022-09-28T00:53:49;10.00;99.90
23087;DHT22;11712;51.134;4.156;2022-09-28T00:56:17;10.20;99.90
23087;DHT22;11712;51.134;4.156;2022-09-28T00:58:47;10.30;99.90
23087;DHT22;11712;51.134;4.156;2022-09-28T01:01:14;10.20;99.90
23087;DHT22;11712;51.134;4.156;2022-09-28T01:03:40;10.30;99.90
23087;DHT22;11712;51.134;4.156;2022-09-28T01:06:26;10.50;99.90
23087;DHT22;11712;51.134;4.156;2022-09-28T01:08:54;10.50;99.90
23087;DHT22;11712;51.134;4.156;2022-09-28T01:11:20;10.40;99.90
23087;DHT22;11712;51.134;4.156;2022-09-28T01:13:47;10.50;99.90
23087;DHT22;11712;51.134;4.156;2022-09-28T01:27:31;10.40;99.90
23087;DHT22;11712;51.134;4.156;2022-09-28T01:30:10;10.50;99.90
23087;DHT22;11712;51.134;4.156;2022-09-28T01:32:50;10.40;99.90
23087;DHT22;11712;51.134;4.156;2022-09-28T01:35:20;10.40;99.90
23087;DHT22;11712;51.134;4.156;2022-09-28T01:38:05;10.30;99.90
23087;DHT22;11712;51.134;4.156;2022-09-28T01:40:32;10.20;99.90
23087;DHT22;11712;51.134;4.156;2022-09-28T01:43:11;10.10;99.90
23087;DHT22;11712;51.134;4.156;2022-09-28T01:45:44;10.20;99.90
23087;DHT22;11712;51.134;4.156;2022-09-28T01:48:14;10.20;99.90
23087;DHT22;11712;51.134;4.156;2022-09-28T01:50:44;10.20;99.90
23087;DHT22;11712;51.134;4.156;2022-09-28T01:53:28;10.20;99.90
23087;DHT22;11712;51.134;4.156;2022-09-28T01:56:03;10.30;99.90
23087;DHT22;11712;51.134;4.156;2022-09-28T01:58:48;10.30;99.90
23087;DHT22;11712;51.134;4.156;2022-09-28T02:01:27;10.10;99.90
23087;DHT22;11712;51.134;4.156;2022-09-28T02:04:08;10.00;99.90
23087;DHT22;11712;51.134;4.156;2022-09-28T02:06:40;10.10;99.90
23087;DHT22;11712;51.134;4.156;2022-09-28T02:09:16;10.40;99.90
23087;DHT22;11712;51.134;4.156;2022-09-28T02:11:48;10.20;99.90
23087;DHT22;11712;51.134;4.156;2022-09-28T02:14:16;10.00;99.90
23087;DHT22;11712;51.134;4.156;2022-09-28T02:16:46;10.00;99.90
23087;DHT22;11712;51.134;4.156;2022-09-28T02:19:22;10.00;99.90
23087;DHT22;11712;51.134;4.156;2022-09-28T02:22:08;10.10;99.90
23087;DHT22;11712;51.134;4.156;2022-09-28T02:24:40;10.10;99.90
23087;DHT22;11712;51.134;4.156;2022-09-28T02:27:25;10.20;99.90
23087;DHT22;11712;51.134;4.156;2022-09-28T02:30:19;9.80;99.90
23087;DHT22;11712;51.134;4.156;2022-09-28T02:32:47;9.70;99.90
23087;DHT22;11712;51.134;4.156;2022-09-28T02:35:44;9.90;99.90
23087;DHT22;11712;51.134;4.156;2022-09-28T02:38:11;10.00;99.90
23087;DHT22;11712;51.134;4.156;2022-09-28T02:40:38;10.30;99.90
23087;DHT22;11712;51.134;4.156;2022-09-28T02:43:20;10.00;99.90
23087;DHT22;11712;51.134;4.156;2022-09-28T02:49:06;9.90;99.90
23087;DHT22;11712;51.134;4.156;2022-09-28T02:52:03;10.10;99.90
23087;DHT22;11712;51.134;4.156;2022-09-28T03:00:10;10.20;99.90
23087;DHT22;11712;51.134;4.156;2022-09-28T03:08:42;10.10;99.90
23087;DHT22;11712;51.134;4.156;2022-09-28T03:11:22;10.00;99.90
23087;DHT22;11712;51.134;4.156;2022-09-28T03:13:50;10.00;99.90
23087;DHT22;11712;51.134;4.156;2022-09-28T03:16:17;10.00;99.90
23087;DHT22;11712;51.134;4.156;2022-09-28T03:18:44;9.90;99.90
23087;DHT22;11712;51.134;4.156;2022-09-28T03:21:14;10.10;99.90
23087;DHT22;11712;51.134;4.156;2022-09-28T03:23:40;10.10;99.90
23087;DHT22;11712;51.134;4.156;2022-09-28T03:26:12;10.10;99.90
23087;DHT22;11712;51.134;4.156;2022-09-28T03:28:38;9.90;99.90
23087;DHT22;11712;51.134;4.156;2022-09-28T03:31:04;9.90;99.90
23087;DHT22;11712;51.134;4.156;2022-09-28T03:34:06;10.00;99.90
23087;DHT22;11712;51.134;4.156;2022-09-28T03:36:31;10.00;99.90
23087;DHT22;11712;51.134;4.156;2022-09-28T03:38:57;10.00;99.90
23087;DHT22;11712;51.134;4.156;2022-09-28T03:41:24;9.90;99.90
23087;DHT22;11712;51.134;4.156;2022-09-28T03:43:49;9.70;99.90
23087;DHT22;11712;51.134;4.156;2022-09-28T03:46:15;9.70;99.90
23087;DHT22;11712;51.134;4.156;2022-09-28T03:48:41;9.50;99.90
23087;DHT22;11712;51.134;4.156;2022-09-28T03:51:08;9.60;99.90
23087;DHT22;11712;51.134;4.156;2022-09-28T03:53:35;9.50;99.90
23087;DHT22;11712;51.134;4.156;2022-09-28T03:56:06;9.30;99.90
23087;DHT22;11712;51.134;4.156;2022-09-28T03:58:32;9.30;99.90
23087;DHT22;11712;51.134;4.156;2022-09-28T04:01:02;9.40;99.90
23087;DHT22;11712;51.134;4.156;2022-09-28T04:03:28;9.40;99.90
23087;DHT22;11712;51.134;4.156;2022-09-28T04:05:54;9.40;99.90
23087;DHT22;11712;51.134;4.156;2022-09-28T04:08:20;9.40;99.90
23087;DHT22;11712;51.134;4.156;2022-09-28T04:10:45;9.30;99.90
23087;DHT22;11712;51.134;4.156;2022-09-28T04:13:12;9.20;99.90
23087;DHT22;11712;51.134;4.156;2022-09-28T04:15:37;9.30;99.90
23087;DHT22;11712;51.134;4.156;2022-09-28T04:18:07;9.30;99.90
23087;DHT22;11712;51.134;4.156;2022-09-28T04:20:33;9.30;99.90
23087;DHT22;11712;51.134;4.156;2022-09-28T04:22:59;9.20;99.90
23087;DHT22;11712;51.134;4.156;2022-09-28T04:25:24;9.30;99.90
23087;DHT22;11712;51.134;4.156;2022-09-28T04:27:50;9.40;99.90
23087;DHT22;11712;51.134;4.156;2022-09-28T04:30:34;9.30;99.90
23087;DHT22;11712;51.134;4.156;2022-09-28T04:33:00;9.20;99.90
23087;DHT22;11712;51.134;4.156;2022-09-28T04:35:26;8.90;99.90
23087;DHT22;11712;51.134;4.156;2022-09-28T04:37:51;8.80;99.90
23087;DHT22;11712;51.134;4.156;2022-09-28T04:40:17;8.70;99.90
23087;DHT22;11712;51.134;4.156;2022-09-28T04:42:42;8.70;99.90
23087;DHT22;11712;51.134;4.156;2022-09-28T04:45:08;8.60;99.90
23087;DHT22;11712;51.134;4.156;2022-09-28T04:47:34;8.60;99.90
23087;DHT22;11712;51.134;4.156;2022-09-28T04:50:00;8.70;99.90
23087;DHT22;11712;51.134;4.156;2022-09-28T04:52:25;8.60;99.90
23087;DHT22;11712;51.134;4.156;2022-09-28T04:54:51;8.70;99.90
23087;DHT22;11712;51.134;4.156;2022-09-28T04:57:17;8.60;99.90
23087;DHT22;11712;51.134;4.156;2022-09-28T04:59:43;8.50;99.90
23087;DHT22;11712;51.134;4.156;2022-09-28T05:02:08;8.50;99.90
23087;DHT22;11712;51.134;4.156;2022-09-28T05:04:35;8.60;99.90
23087;DHT22;11712;51.134;4.156;2022-09-28T05:07:00;8.50;99.90
23087;DHT22;11712;51.134;4.156;2022-09-28T05:09:26;8.50;99.90
23087;DHT22;11712;51.134;4.156;2022-09-28T05:11:51;8.40;99.90
23087;DHT22;11712;51.134;4.156;2022-09-28T05:14:20;8.40;99.90
23087;DHT22;11712;51.134;4.156;2022-09-28T05:16:49;8.40;99.90
23087;DHT22;11712;51.134;4.156;2022-09-28T05:19:14;8.30;99.90
23087;DHT22;11712;51.134;4.156;2022-09-28T05:21:43;8.40;99.90
23087;DHT22;11712;51.134;4.156;2022-09-28T05:24:10;8.40;99.90
23087;DHT22;11712;51.134;4.156;2022-09-28T05:26:36;8.40;99.90
23087;DHT22;11712;51.134;4.156;2022-09-28T05:29:02;8.20;99.90
23087;DHT22;11712;51.134;4.156;2022-09-28T05:31:27;8.30;99.90
23087;DHT22;11712;51.134;4.156;2022-09-28T05:33:53;8.50;99.90
23087;DHT22;11712;51.134;4.156;2022-09-28T05:36:19;8.50;99.90
23087;DHT22;11712;51.134;4.156;2022-09-28T05:38:45;8.40;99.90
23087;DHT22;11712;51.134;4.156;2022-09-28T05:41:11;8.40;99.90
23087;DHT22;11712;51.134;4.156;2022-09-28T05:43:37;8.50;99.90
23087;DHT22;11712;51.134;4.156;2022-09-28T05:46:03;8.50;99.90
23087;DHT22;11712;51.134;4.156;2022-09-28T05:48:29;8.30;99.90
23087;DHT22;11712;51.134;4.156;2022-09-28T05:50:55;8.20;99.90
23087;DHT22;11712;51.134;4.156;2022-09-28T05:53:23;8.40;99.90
23087;DHT22;11712;51.134;4.156;2022-09-28T05:55:49;8.40;99.90
23087;DHT22;11712;51.134;4.156;2022-09-28T05:58:15;8.50;99.90
23087;DHT22;11712;51.134;4.156;2022-09-28T06:00:41;8.30;99.90
23087;DHT22;11712;51.134;4.156;2022-09-28T06:03:11;8.10;99.90
23087;DHT22;11712;51.134;4.156;2022-09-28T06:05:37;8.20;99.90
23087;DHT22;11712;51.134;4.156;2022-09-28T06:08:07;8.30;99.90
23087;DHT22;11712;51.134;4.156;2022-09-28T06:10:34;8.30;99.90
23087;DHT22;11712;51.134;4.156;2022-09-28T06:13:00;8.20;99.90
23087;DHT22;11712;51.134;4.156;2022-09-28T06:15:28;8.20;99.90
23087;DHT22;11712;51.134;4.156;2022-09-28T06:18:02;8.30;99.90
23087;DHT22;11712;51.134;4.156;2022-09-28T06:20:32;8.40;99.90
23087;DHT22;11712;51.134;4.156;2022-09-28T06:22:58;8.50;99.90
23087;DHT22;11712;51.134;4.156;2022-09-28T06:25:24;8.70;99.90
23087;DHT22;11712;51.134;4.156;2022-09-28T06:28:00;8.80;99.90
23087;DHT22;11712;51.134;4.156;2022-09-28T06:30:27;8.80;99.90
23087;DHT22;11712;51.134;4.156;2022-09-28T06:32:55;8.80;99.90
23087;DHT22;11712;51.134;4.156;2022-09-28T06:35:22;8.80;99.90
23087;DHT22;11712;51.134;4.156;2022-09-28T06:37:49;8.80;99.90
23087;DHT22;11712;51.134;4.156;2022-09-28T06:40:14;9.00;99.90
23087;DHT22;11712;51.134;4.156;2022-09-28T06:42:40;9.00;99.90
23087;DHT22;11712;51.134;4.156;2022-09-28T06:45:06;9.00;99.90
23087;DHT22;11712;51.134;4.156;2022-09-28T06:47:32;9.00;99.90
23087;DHT22;11712;51.134;4.156;2022-09-28T06:49:59;9.00;99.90
23087;DHT22;11712;51.134;4.156;2022-09-28T06:52:24;9.10;99.90
23087;DHT22;11712;51.134;4.156;2022-09-28T06:54:51;9.10;99.90
23087;DHT22;11712;51.134;4.156;2022-09-28T06:57:17;9.10;99.90
23087;DHT22;11712;51.134;4.156;2022-09-28T06:59:42;9.20;99.90
23087;DHT22;11712;51.134;4.156;2022-09-28T07:02:11;9.30;99.90
23087;DHT22;11712;51.134;4.156;2022-09-28T07:04:41;9.30;99.90
23087;DHT22;11712;51.134;4.156;2022-09-28T07:07:10;9.30;99.90
23087;DHT22;11712;51.134;4.156;2022-09-28T07:09:36;9.40;99.90
23087;DHT22;11712;51.134;4.156;2022-09-28T07:12:02;9.50;99.90
23087;DHT22;11712;51.134;4.156;2022-09-28T07:14:32;9.50;99.90
23087;DHT22;11712;51.134;4.156;2022-09-28T07:16:58;9.60;99.90
23087;DHT22;11712;51.134;4.156;2022-09-28T07:19:24;9.60;99.90
23087;DHT22;11712;51.134;4.156;2022-09-28T07:21:52;9.70;99.90
23087;DHT22;11712;51.134;4.156;2022-09-28T07:24:18;9.80;99.90
23087;DHT22;11712;51.134;4.156;2022-09-28T07:26:44;9.80;99.90
23087;DHT22;11712;51.134;4.156;2022-09-28T07:29:10;9.80;99.90
23087;DHT22;11712;51.134;4.156;2022-09-28T07:31:38;9.80;99.90
23087;DHT22;11712;51.134;4.156;2022-09-28T07:34:03;9.90;99.90
23087;DHT22;11712;51.134;4.156;2022-09-28T07:36:29;9.90;99.90
23087;DHT22;11712;51.134;4.156;2022-09-28T07:39:00;10.00;99.90
23087;DHT22;11712;51.134;4.156;2022-09-28T07:41:26;10.10;99.90
23087;DHT22;11712;51.134;4.156;2022-09-28T07:43:59;10.20;99.90
23087;DHT22;11712;51.134;4.156;2022-09-28T07:46:32;10.30;99.90
23087;DHT22;11712;51.134;4.156;2022-09-28T07:48:58;10.40;99.90
23087;DHT22;11712;51.134;4.156;2022-09-28T07:51:23;10.50;99.90
23087;DHT22;11712;51.134;4.156;2022-09-28T07:53:49;10.60;99.90
23087;DHT22;11712;51.134;4.156;2022-09-28T07:56:18;10.70;99.90
23087;DHT22;11712;51.134;4.156;2022-09-28T07:58:46;10.70;99.90
23087;DHT22;11712;51.134;4.156;2022-09-28T08:01:12;10.80;99.90
23087;DHT22;11712;51.134;4.156;2022-09-28T08:03:42;10.90;99.90
23087;DHT22;11712;51.134;4.156;2022-09-28T08:06:15;10.90;99.90
23087;DHT22;11712;51.134;4.156;2022-09-28T08:08:41;11.00;99.90
23087;DHT22;11712;51.134;4.156;2022-09-28T08:11:12;11.00;99.90
23087;DHT22;11712;51.134;4.156;2022-09-28T08:13:38;11.00;99.90
23087;DHT22;11712;51.134;4.156;2022-09-28T08:16:04;11.00;99.90
23087;DHT22;11712;51.134;4.156;2022-09-28T08:18:31;11.10;99.90
23087;DHT22;11712;51.134;4.156;2022-09-28T08:20:57;11.20;99.90
23087;DHT22;11712;51.134;4.156;2022-09-28T08:23:42;11.30;99.90
23087;DHT22;11712;51.134;4.156;2022-09-28T08:26:07;11.30;99.90
23087;DHT22;11712;51.134;4.156;2022-09-28T08:28:33;11.40;99.90
23087;DHT22;11712;51.134;4.156;2022-09-28T08:31:01;11.50;99.90
23087;DHT22;11712;51.134;4.156;2022-09-28T08:33:27;11.50;99.90
23087;DHT22;11712;51.134;4.156;2022-09-28T08:35:57;11.80;99.90
23087;DHT22;11712;51.134;4.156;2022-09-28T08:38:27;11.80;99.90
23087;DHT22;11712;51.134;4.156;2022-09-28T08:43:55;11.90;99.90
23087;DHT22;11712;51.134;4.156;2022-09-28T08:46:25;11.80;99.90
23087;DHT22;11712;51.134;4.156;2022-09-28T08:49:09;11.80;99.90
23087;DHT22;11712;51.134;4.156;2022-09-28T08:51:53;11.80;99.90
23087;DHT22;11712;51.134;4.156;2022-09-28T08:55:03;11.80;99.90
23087;DHT22;11712;51.134;4.156;2022-09-28T08:57:16;11.90;99.90
23087;DHT22;11712;51.134;4.156;2022-09-28T08:59:52;12.00;99.90
23087;DHT22;11712;51.134;4.156;2022-09-28T09:04:47;12.40;99.90
23087;DHT22;11712;51.134;4.156;2022-09-28T09:07:30;12.80;99.90
23087;DHT22;11712;51.134;4.156;2022-09-28T09:13:26;12.70;99.90
23087;DHT22;11712;51.134;4.156;2022-09-28T09:18:37;12.80;99.90
23087;DHT22;11712;51.134;4.156;2022-09-28T09:21:12;13.10;99.90
23087;DHT22;11712;51.134;4.156;2022-09-28T09:24:04;13.10;99.90
23087;DHT22;11712;51.134;4.156;2022-09-28T09:26:39;13.30;99.90
23087;DHT22;11712;51.134;4.156;2022-09-28T09:29:12;13.30;99.90
23087;DHT22;11712;51.134;4.156;2022-09-28T09:43:32;14.10;99.90
23087;DHT22;11712;51.134;4.156;2022-09-28T09:54:32;14.20;99.90
23087;DHT22;11712;51.134;4.156;2022-09-28T09:57:18;14.30;99.90
23087;DHT22;11712;51.134;4.156;2022-09-28T09:59:44;14.40;99.90
23087;DHT22;11712;51.134;4.156;2022-09-28T10:02:25;14.50;99.90
23087;DHT22;11712;51.134;4.156;2022-09-28T10:05:05;14.60;99.90
23087;DHT22;11712;51.134;4.156;2022-09-28T10:07:53;14.40;99.90
23087;DHT22;11712;51.134;4.156;2022-09-28T10:10:30;14.40;99.90
23087;DHT22;11712;51.134;4.156;2022-09-28T10:12:58;14.40;99.90
23087;DHT22;11712;51.134;4.156;2022-09-28T10:15:26;14.50;99.90
23087;DHT22;11712;51.134;4.156;2022-09-28T10:17:54;14.60;99.90
23087;DHT22;11712;51.134;4.156;2022-09-28T10:20:20;14.60;99.90
23087;DHT22;11712;51.134;4.156;2022-09-28T10:22:48;14.80;99.90
23087;DHT22;11712;51.134;4.156;2022-09-28T10:25:15;14.90;99.90
23087;DHT22;11712;51.134;4.156;2022-09-28T10:27:43;14.80;99.90
23087;DHT22;11712;51.134;4.156;2022-09-28T10:30:19;14.80;99.90
23087;DHT22;11712;51.134;4.156;2022-09-28T10:32:49;14.70;99.90
23087;DHT22;11712;51.134;4.156;2022-09-28T10:35:39;14.60;99.90
23087;DHT22;11712;51.134;4.156;2022-09-28T10:38:16;14.80;99.90
23087;DHT22;11712;51.134;4.156;2022-09-28T10:43:30;15.10;99.90
23087;DHT22;11712;51.134;4.156;2022-09-28T10:46:08;15.40;99.90
23087;DHT22;11712;51.134;4.156;2022-09-28T10:48:44;15.60;99.90
23087;DHT22;11712;51.134;4.156;2022-09-28T10:51:11;15.60;99.90
23087;DHT22;11712;51.134;4.156;2022-09-28T10:53:38;15.80;99.90
23087;DHT22;11712;51.134;4.156;2022-09-28T10:56:18;15.90;99.90
23087;DHT22;11712;51.134;4.156;2022-09-28T10:58:45;16.10;99.90
23087;DHT22;11712;51.134;4.156;2022-09-28T11:01:13;16.10;99.90
23087;DHT22;11712;51.134;4.156;2022-09-28T11:03:55;16.10;99.90
23087;DHT22;11712;51.134;4.156;2022-09-28T11:06:35;16.50;99.90
23087;DHT22;11712;51.134;4.156;2022-09-28T11:09:04;16.80;99.90
23087;DHT22;11712;51.134;4.156;2022-09-28T11:11:39;16.00;99.90
23087;DHT22;11712;51.134;4.156;2022-09-28T11:14:32;16.00;99.90
23087;DHT22;11712;51.134;4.156;2022-09-28T11:17:28;16.20;99.90
23087;DHT22;11712;51.134;4.156;2022-09-28T11:19:56;15.40;99.90
23087;DHT22;11712;51.134;4.156;2022-09-28T11:22:29;13.90;99.90
23087;DHT22;11712;51.134;4.156;2022-09-28T11:25:26;12.80;99.90
23087;DHT22;11712;51.134;4.156;2022-09-28T11:33:28;12.30;99.90
23087;DHT22;11712;51.134;4.156;2022-09-28T11:41:31;12.50;99.90
23087;DHT22;11712;51.134;4.156;2022-09-28T11:44:35;12.90;99.90
23087;DHT22;11712;51.134;4.156;2022-09-28T11:50:28;13.20;99.90
23087;DHT22;11712;51.134;4.156;2022-09-28T11:58:39;13.40;99.90
23087;DHT22;11712;51.134;4.156;2022-09-28T12:03:56;13.60;99.90
23087;DHT22;11712;51.134;4.156;2022-09-28T12:06:32;13.80;99.90
23087;DHT22;11712;51.134;4.156;2022-09-28T12:09:06;14.30;99.90
23087;DHT22;11712;51.134;4.156;2022-09-28T12:11:38;14.30;99.90
23087;DHT22;11712;51.134;4.156;2022-09-28T12:14:17;14.50;99.90
23087;DHT22;11712;51.134;4.156;2022-09-28T12:16:49;14.70;99.90
23087;DHT22;11712;51.134;4.156;2022-09-28T12:22:07;15.40;99.90
23087;DHT22;11712;51.134;4.156;2022-09-28T12:24:46;15.20;99.90
23087;DHT22;11712;51.134;4.156;2022-09-28T12:30:03;14.30;99.90
23087;DHT22;11712;51.134;4.156;2022-09-28T12:38:14;13.60;99.90
23087;DHT22;11712;51.134;4.156;2022-09-28T12:57:53;12.80;99.90
23087;DHT22;11712;51.134;4.156;2022-09-28T13:00:22;13.30;99.90
23087;DHT22;11712;51.134;4.156;2022-09-28T13:08:22;13.30;99.90
23087;DHT22;11712;51.134;4.156;2022-09-28T13:10:54;13.70;99.90
23087;DHT22;11712;51.134;4.156;2022-09-28T13:13:51;14.00;99.90
23087;DHT22;11712;51.134;4.156;2022-09-28T13:22:29;13.50;99.90
23087;DHT22;11712;51.134;4.156;2022-09-28T13:25:03;13.30;99.90
23087;DHT22;11712;51.134;4.156;2022-09-28T13:27:34;13.70;99.90
23087;DHT22;11712;51.134;4.156;2022-09-28T13:30:03;13.80;99.90
23087;DHT22;11712;51.134;4.156;2022-09-28T13:32:32;13.90;99.90
23087;DHT22;11712;51.134;4.156;2022-09-28T13:34:58;13.70;99.90
23087;DHT22;11712;51.134;4.156;2022-09-28T13:37:27;13.40;99.90
23087;DHT22;11712;51.134;4.156;2022-09-28T13:39:57;13.70;99.90
23087;DHT22;11712;51.134;4.156;2022-09-28T13:42:57;13.80;99.90
23087;DHT22;11712;51.134;4.156;2022-09-28T13:46:07;13.60;99.90
23087;DHT22;11712;51.134;4.156;2022-09-28T13:48:16;13.80;99.90
23087;DHT22;11712;51.134;4.156;2022-09-28T13:53:59;13.50;99.90
23087;DHT22;11712;51.134;4.156;2022-09-28T13:56:46;13.40;99.90
23087;DHT22;11712;51.134;4.156;2022-09-28T13:59:23;13.50;99.90
23087;DHT22;11712;51.134;4.156;2022-09-28T14:02:22;13.90;99.90
23087;DHT22;11712;51.134;4.156;2022-09-28T14:10:16;14.60;99.90
23087;DHT22;11712;51.134;4.156;2022-09-28T14:12:45;15.10;99.90
23087;DHT22;11712;51.134;4.156;2022-09-28T14:18:24;15.30;99.90
23087;DHT22;11712;51.134;4.156;2022-09-28T14:27:48;15.30;99.90
23087;DHT22;11712;51.134;4.156;2022-09-28T14:29:45;15.20;99.90
23087;DHT22;11712;51.134;4.156;2022-09-28T14:34:47;14.90;99.90
23087;DHT22;11712;51.134;4.156;2022-09-28T14:37:32;15.00;99.90
23087;DHT22;11712;51.134;4.156;2022-09-28T14:40:23;15.30;99.90
23087;DHT22;11712;51.134;4.156;2022-09-28T14:45:49;15.30;99.90
23087;DHT22;11712;51.134;4.156;2022-09-28T14:48:20;15.30;99.90
23087;DHT22;11712;51.134;4.156;2022-09-28T14:50:46;15.40;99.90
23087;DHT22;11712;51.134;4.156;2022-09-28T14:53:19;15.40;99.90
23087;DHT22;11712;51.134;4.156;2022-09-28T14:55:48;15.70;99.90
23087;DHT22;11712;51.134;4.156;2022-09-28T14:58:20;16.20;99.90
23087;DHT22;11712;51.134;4.156;2022-09-28T15:00:49;16.80;99.90
23087;DHT22;11712;51.134;4.156;2022-09-28T15:03:17;16.70;99.90
23087;DHT22;11712;51.134;4.156;2022-09-28T15:05:45;16.00;99.90
23087;DHT22;11712;51.134;4.156;2022-09-28T15:08:14;15.40;99.90
23087;DHT22;11712;51.134;4.156;2022-09-28T15:10:45;15.20;99.90
23087;DHT22;11712;51.134;4.156;2022-09-28T15:13:18;14.80;99.90
23087;DHT22;11712;51.134;4.156;2022-09-28T15:15:53;14.60;99.90
23087;DHT22;11712;51.134;4.156;2022-09-28T15:18:33;14.60;99.90
23087;DHT22;11712;51.134;4.156;2022-09-28T15:21:03;14.60;99.90
23087;DHT22;11712;51.134;4.156;2022-09-28T15:25:57;15.40;99.90
23087;DHT22;11712;51.134;4.156;2022-09-28T15:28:23;16.10;99.90
23087;DHT22;11712;51.134;4.156;2022-09-28T15:30:50;16.90;99.90
23087;DHT22;11712;51.134;4.156;2022-09-28T15:33:29;17.40;99.90
23087;DHT22;11712;51.134;4.156;2022-09-28T15:36:26;17.80;99.90
23087;DHT22;11712;51.134;4.156;2022-09-28T15:39:00;18.10;99.90
23087;DHT22;11712;51.134;4.156;2022-09-28T15:41:28;18.30;99.90
23087;DHT22;11712;51.134;4.156;2022-09-28T15:46:41;18.50;99.90
23087;DHT22;11712;51.134;4.156;2022-09-28T15:51:51;18.80;99.90
23087;DHT22;11712;51.134;4.156;2022-09-28T15:54:30;18.70;99.90
23087;DHT22;11712;51.134;4.156;2022-09-28T15:57:01;18.60;99.90
23087;DHT22;11712;51.134;4.156;2022-09-28T15:59:35;18.40;99.90
23087;DHT22;11712;51.134;4.156;2022-09-28T16:02:18;18.40;99.90
23087;DHT22;11712;51.134;4.156;2022-09-28T16:10:00;18.20;99.90
23087;DHT22;11712;51.134;4.156;2022-09-28T16:12:52;18.20;99.90
23087;DHT22;11712;51.134;4.156;2022-09-28T16:15:22;17.70;99.90
23087;DHT22;11712;51.134;4.156;2022-09-28T16:17:57;16.90;99.90
23087;DHT22;11712;51.134;4.156;2022-09-28T16:20:34;16.20;99.90
23087;DHT22;11712;51.134;4.156;2022-09-28T16:31:20;14.90;99.90
23087;DHT22;11712;51.134;4.156;2022-09-28T16:36:37;14.60;99.90
23087;DHT22;11712;51.134;4.156;2022-09-28T16:39:03;14.50;99.90
23087;DHT22;11712;51.134;4.156;2022-09-28T16:41:29;14.40;99.90
23087;DHT22;11712;51.134;4.156;2022-09-28T16:43:58;14.30;99.90
23087;DHT22;11712;51.134;4.156;2022-09-28T16:46:31;14.30;99.90
23087;DHT22;11712;51.134;4.156;2022-09-28T16:48:59;14.20;99.90
23087;DHT22;11712;51.134;4.156;2022-09-28T16:51:27;14.20;99.90
23087;DHT22;11712;51.134;4.156;2022-09-28T16:53:53;14.10;99.90
23087;DHT22;11712;51.134;4.156;2022-09-28T16:56:37;14.10;99.90
23087;DHT22;11712;51.134;4.156;2022-09-28T16:59:03;14.00;99.90
23087;DHT22;11712;51.134;4.156;2022-09-28T17:01:29;14.00;99.90
23087;DHT22;11712;51.134;4.156;2022-09-28T17:03:55;13.90;99.90
23087;DHT22;11712;51.134;4.156;2022-09-28T17:06:22;13.70;99.90
23087;DHT22;11712;51.134;4.156;2022-09-28T17:08:51;13.70;99.90
23087;DHT22;11712;51.134;4.156;2022-09-28T17:11:19;13.70;99.90
23087;DHT22;11712;51.134;4.156;2022-09-28T17:13:46;13.60;99.90
23087;DHT22;11712;51.134;4.156;2022-09-28T17:16:14;13.50;99.90
23087;DHT22;11712;51.134;4.156;2022-09-28T17:18:40;13.50;99.90
23087;DHT22;11712;51.134;4.156;2022-09-28T17:21:13;13.40;99.90
23087;DHT22;11712;51.134;4.156;2022-09-28T17:23:40;13.30;99.90
23087;DHT22;11712;51.134;4.156;2022-09-28T17:26:07;13.30;99.90
23087;DHT22;11712;51.134;4.156;2022-09-28T17:28:35;13.20;99.90
23087;DHT22;11712;51.134;4.156;2022-09-28T17:31:01;13.10;99.90
23087;DHT22;11712;51.134;4.156;2022-09-28T17:33:27;13.00;99.90
23087;DHT22;11712;51.134;4.156;2022-09-28T17:35:59;13.00;99.90
23087;DHT22;11712;51.134;4.156;2022-09-28T17:38:25;12.80;99.90
23087;DHT22;11712;51.134;4.156;2022-09-28T17:40:51;12.80;99.90
23087;DHT22;11712;51.134;4.156;2022-09-28T17:43:16;12.80;99.90
23087;DHT22;11712;51.134;4.156;2022-09-28T17:45:45;12.80;99.90
23087;DHT22;11712;51.134;4.156;2022-09-28T17:48:16;12.70;99.90
23087;DHT22;11712;51.134;4.156;2022-09-28T17:50:43;12.60;99.90
23087;DHT22;11712;51.134;4.156;2022-09-28T17:53:10;12.50;99.90
23087;DHT22;11712;51.134;4.156;2022-09-28T17:55:37;12.40;99.90
23087;DHT22;11712;51.134;4.156;2022-09-28T17:58:19;12.40;99.90
23087;DHT22;11712;51.134;4.156;2022-09-28T18:00:46;12.40;99.90
23087;DHT22;11712;51.134;4.156;2022-09-28T18:03:17;12.40;99.90
23087;DHT22;11712;51.134;4.156;2022-09-28T18:05:43;12.50;99.90
23087;DHT22;11712;51.134;4.156;2022-09-28T18:08:16;12.40;99.90
23087;DHT22;11712;51.134;4.156;2022-09-28T18:10:42;12.40;99.90
23087;DHT22;11712;51.134;4.156;2022-09-28T18:13:07;12.30;99.90
23087;DHT22;11712;51.134;4.156;2022-09-28T18:15:33;12.40;99.90
23087;DHT22;11712;51.134;4.156;2022-09-28T18:17:59;12.50;99.90
23087;DHT22;11712;51.134;4.156;2022-09-28T18:20:24;12.40;99.90
23087;DHT22;11712;51.134;4.156;2022-09-28T18:22:50;12.30;99.90
23087;DHT22;11712;51.134;4.156;2022-09-28T18:25:16;12.20;99.90
23087;DHT22;11712;51.134;4.156;2022-09-28T18:27:41;12.20;99.90
23087;DHT22;11712;51.134;4.156;2022-09-28T18:30:08;12.00;99.90
23087;DHT22;11712;51.134;4.156;2022-09-28T18:32:36;11.70;99.90
23087;DHT22;11712;51.134;4.156;2022-09-28T18:35:07;11.60;99.90
23087;DHT22;11712;51.134;4.156;2022-09-28T18:37:37;11.50;99.90
23087;DHT22;11712;51.134;4.156;2022-09-28T18:40:06;11.60;99.90
23087;DHT22;11712;51.134;4.156;2022-09-28T18:42:32;11.70;99.90
23087;DHT22;11712;51.134;4.156;2022-09-28T18:45:01;11.70;99.90
23087;DHT22;11712;51.134;4.156;2022-09-28T18:47:26;11.60;99.90
23087;DHT22;11712;51.134;4.156;2022-09-28T18:49:52;11.40;99.90